Time;durP1;ratioP1;P1;durP2;ratioP2;P2;SDS_P1;SDS_P2;PMS_P1;PMS_P2;Temp;Humidity;BMP_temperature;BMP_pressure;BME280_temperature;BME280_humidity;BME280_pressure;Samples;Min_cycle;Max_cycle;Signal;HPM_P1;HPM_P2
2023/03/30 00:00:17;;;;;;;7.95;5.45;;;11.40;99.90;;;;;;5082829;28;20041;-75
2023/03/30 00:02:48;;;;;;;;;;;11.50;99.90;;;;;;5055279;28;20051;-75
2023/03/30 00:05:14;;;;;;;5.75;4.03;;;11.40;99.90;;;;;;5082452;28;19937;-75
2023/03/30 00:07:41;;;;;;;5.95;4.32;;;11.50;99.90;;;;;;5080930;28;20131;-75
2023/03/30 00:10:09;;;;;;;5.88;4.40;;;11.50;99.90;;;;;;5067391;28;20094;-75
2023/03/30 00:12:34;;;;;;;5.32;4.45;;;11.50;99.90;;;;;;5064548;28;20048;-75
2023/03/30 00:15:01;;;;;;;6.03;4.68;;;11.50;99.90;;;;;;5083716;28;20089;-75
2023/03/30 00:17:27;;;;;;;6.20;5.00;;;11.60;99.90;;;;;;5081927;28;20040;-75
2023/03/30 00:19:52;;;;;;;6.13;4.60;;;11.60;99.90;;;;;;5060171;28;20036;-74
2023/03/30 00:22:18;;;;;;;7.97;4.97;;;11.60;99.90;;;;;;5086108;28;20074;-75
2023/03/30 00:24:44;;;;;;;7.20;4.55;;;11.70;99.90;;;;;;5083632;28;20560;-75
2023/03/30 00:27:09;;;;;;;7.55;4.90;;;11.70;99.90;;;;;;5080573;28;20508;-75
2023/03/30 00:29:35;;;;;;;7.35;5.18;;;11.80;99.90;;;;;;5074848;28;20419;-75
2023/03/30 00:32:02;;;;;;;6.40;4.53;;;11.90;99.90;;;;;;5061139;28;20079;-75
2023/03/30 00:34:28;;;;;;;5.10;4.00;;;11.90;99.90;;;;;;5081462;28;20040;-75
2023/03/30 00:36:55;;;;;;;6.30;4.57;;;11.90;99.90;;;;;;5059209;28;20039;-75
2023/03/30 00:39:21;;;;;;;5.30;4.10;;;11.90;99.90;;;;;;5082885;28;20044;-75
2023/03/30 00:41:48;;;;;;;5.18;3.90;;;11.90;99.90;;;;;;5087330;28;20155;-75
2023/03/30 00:44:51;;;;;;;5.55;4.20;;;11.90;99.90;;;;;;5079351;28;20093;-75
2023/03/30 00:47:17;;;;;;;4.28;3.40;;;12.00;99.90;;;;;;5086350;28;20048;-74
2023/03/30 00:49:44;;;;;;;6.32;3.97;;;12.00;99.90;;;;;;5065813;28;20048;-75
2023/03/30 00:52:10;;;;;;;6.60;3.88;;;11.90;99.90;;;;;;5093246;28;20043;-75
2023/03/30 00:54:38;;;;;;;5.50;3.90;;;12.00;99.90;;;;;;5092152;28;20040;-75
2023/03/30 00:57:06;;;;;;;5.57;4.10;;;12.00;99.90;;;;;;5092272;28;20048;-75
2023/03/30 00:59:32;;;;;;;5.10;3.13;;;11.90;99.90;;;;;;5091670;28;20180;-76
2023/03/30 01:01:59;;;;;;;4.50;3.40;;;11.90;99.90;;;;;;5063624;28;20411;-75
2023/03/30 01:04:24;;;;;;;3.90;3.00;;;11.90;99.90;;;;;;5055212;28;20463;-75
2023/03/30 01:06:51;;;;;;;5.43;3.80;;;11.90;99.90;;;;;;5071736;28;20125;-75
2023/03/30 01:09:18;;;;;;;5.97;3.75;;;11.90;99.90;;;;;;5088520;28;20123;-75
2023/03/30 01:11:44;;;;;;;4.75;3.38;;;11.90;99.90;;;;;;5088749;28;20087;-75
2023/03/30 01:14:12;;;;;;;5.97;4.20;;;11.90;99.90;;;;;;5079778;28;20041;-75
2023/03/30 01:17:12;;;;;;;6.57;4.18;;;11.90;99.90;;;;;;5079238;28;20071;-75
2023/03/30 01:19:59;;;;;;;4.22;3.22;;;11.90;99.90;;;;;;5077171;28;20040;-75
2023/03/30 01:23:14;;;;;;;4.10;3.47;;;11.90;99.90;;;;;;5076459;28;20040;-75
2023/03/30 01:26:06;;;;;;;6.68;3.92;;;11.90;99.90;;;;;;5054843;28;20052;-75
2023/03/30 01:28:51;;;;;;;5.78;3.58;;;11.90;99.90;;;;;;5085088;28;20064;-75
2023/03/30 01:31:27;;;;;;;5.07;3.65;;;11.90;99.90;;;;;;5079223;28;20044;-75
2023/03/30 01:34:11;;;;;;;7.05;3.80;;;11.80;99.90;;;;;;5078713;28;20043;-75
2023/03/30 01:36:56;;;;;;;5.22;3.78;;;11.90;99.90;;;;;;5082703;28;20155;-75
2023/03/30 01:39:55;;;;;;;7.88;4.05;;;11.90;99.90;;;;;;5082902;28;20040;-75
2023/03/30 01:42:26;;;;;;;5.05;3.97;;;11.90;99.90;;;;;;5082901;28;20331;-75
2023/03/30 01:45:06;;;;;;;6.00;3.90;;;11.80;99.90;;;;;;5082545;28;20325;-74
2023/03/30 01:47:47;;;;;;;5.43;3.53;;;11.80;99.90;;;;;;5073275;28;20043;-75
2023/03/30 01:50:22;;;;;;;5.50;3.40;;;11.80;99.90;;;;;;5079380;28;20122;-75
2023/03/30 01:52:59;;;;;;;6.22;3.70;;;11.80;99.90;;;;;;5081595;28;20392;-75
2023/03/30 01:55:56;;;;;;;5.47;3.90;;;11.70;99.90;;;;;;5060648;28;20040;-74
2023/03/30 01:58:25;;;;;;;5.43;3.38;;;11.70;99.90;;;;;;5082264;28;20039;-75
2023/03/30 02:00:53;;;;;;;4.40;3.03;;;11.70;99.90;;;;;;5088252;28;20507;-74
2023/03/30 02:03:26;;;;;;;4.78;3.50;;;11.70;99.90;;;;;;5074618;28;20085;-74
2023/03/30 02:05:56;;;;;;;4.10;3.10;;;11.70;99.90;;;;;;5079660;28;20047;-75
2023/03/30 02:08:27;;;;;;;4.65;2.63;;;11.70;99.90;;;;;;5076873;28;20111;-74
2023/03/30 02:10:55;;;;;;;4.32;2.95;;;11.70;99.90;;;;;;5077485;28;20075;-75
2023/03/30 02:13:21;;;;;;;2.90;2.60;;;11.60;99.90;;;;;;5080484;28;20147;-75
2023/03/30 02:16:02;;;;;;;4.75;3.22;;;11.60;99.90;;;;;;5060086;28;20040;-76
2023/03/30 02:18:28;;;;;;;5.68;3.90;;;11.60;99.90;;;;;;5063404;28;20044;-75
2023/03/30 02:20:57;;;;;;;5.30;3.05;;;11.70;99.90;;;;;;5085445;28;20047;-75
2023/03/30 02:23:27;;;;;;;5.63;3.88;;;11.70;99.90;;;;;;5076556;28;20069;-75
2023/03/30 02:25:54;;;;;;;4.82;3.30;;;11.80;99.90;;;;;;5075990;28;20518;-75
2023/03/30 02:28:20;;;;;;;7.15;3.78;;;11.80;99.90;;;;;;5057357;28;20075;-76
2023/03/30 02:30:46;;;;;;;8.25;4.00;;;11.90;99.90;;;;;;5083600;28;20410;-75
2023/03/30 02:33:42;;;;;;;6.65;3.30;;;11.90;99.90;;;;;;5079210;28;20043;-76
2023/03/30 02:36:22;;;;;;;7.03;3.53;;;11.90;99.90;;;;;;5076209;28;20113;-75
2023/03/30 02:38:58;;;;;;;6.18;2.97;;;12.00;99.90;;;;;;5074732;28;20088;-76
2023/03/30 02:41:46;;;;;;;5.30;2.70;;;11.90;99.90;;;;;;5086712;28;20041;-75
2023/03/30 02:44:25;;;;;;;6.32;3.58;;;11.90;99.90;;;;;;5053663;28;20051;-75
2023/03/30 02:47:05;;;;;;;6.13;3.30;;;11.90;99.90;;;;;;5076813;28;20048;-75
2023/03/30 02:49:53;;;;;;;7.18;3.42;;;12.00;99.90;;;;;;5069652;28;20492;-75
2023/03/30 02:52:38;;;;;;;4.88;3.10;;;12.00;99.90;;;;;;5070174;28;20097;-75
2023/03/30 02:55:21;;;;;;;5.70;3.20;;;12.00;99.90;;;;;;5069824;28;20422;-75
2023/03/30 02:58:06;;;;;;;5.18;3.00;;;12.10;99.90;;;;;;5074358;28;20438;-75
2023/03/30 03:00:42;;;;;;;4.88;2.97;;;12.20;99.90;;;;;;5089632;28;20142;-76
2023/03/30 03:03:16;;;;;;;5.38;3.08;;;12.20;99.90;;;;;;5076692;28;20097;-76
2023/03/30 03:05:42;;;;;;;7.82;2.92;;;12.30;99.90;;;;;;5090070;28;20062;-75
2023/03/30 03:08:08;;;;;;;;;;;12.40;99.90;;;;;;5090748;28;20128;-75
2023/03/30 03:10:35;;;;;;;9.10;3.17;;;12.40;99.90;;;;;;5089904;28;20044;-74
2023/03/30 03:13:01;;;;;;;5.05;2.60;;;12.50;99.90;;;;;;5082454;28;20045;-74
2023/03/30 03:15:27;;;;;;;5.80;3.33;;;12.50;99.90;;;;;;5076519;28;20055;-74
2023/03/30 03:17:53;;;;;;;9.13;3.22;;;12.60;99.90;;;;;;5072151;28;20087;-74
2023/03/30 03:20:19;;;;;;;8.30;3.00;;;12.60;99.90;;;;;;5079376;28;20068;-75
2023/03/30 03:22:45;;;;;;;8.48;2.80;;;12.60;99.90;;;;;;5060201;28;20040;-75
2023/03/30 03:25:11;;;;;;;6.95;2.90;;;12.60;99.90;;;;;;5081420;28;20044;-75
2023/03/30 03:27:36;;;;;;;6.70;2.50;;;12.60;99.90;;;;;;5076802;28;20044;-75
2023/03/30 03:30:02;;;;;;;6.85;2.80;;;12.60;99.90;;;;;;5044713;28;20032;-75
2023/03/30 03:32:28;;;;;;;;;;;12.60;99.90;;;;;;5080123;28;20060;-76
2023/03/30 03:34:54;;;;;;;4.13;2.60;;;12.50;99.90;;;;;;5082641;28;19932;-75
2023/03/30 03:37:20;;;;;;;4.50;2.50;;;12.40;99.90;;;;;;5068652;28;20052;-75
2023/03/30 03:39:45;;;;;;;5.82;2.50;;;12.40;99.90;;;;;;5070179;28;20128;-75
2023/03/30 03:42:11;;;;;;;5.82;2.75;;;12.40;99.90;;;;;;5085999;28;20051;-75
2023/03/30 03:44:39;;;;;;;6.25;2.67;;;12.40;99.90;;;;;;5079943;28;20064;-75
2023/03/30 03:47:05;;;;;;;4.75;2.38;;;12.40;99.90;;;;;;5059966;28;20040;-75
2023/03/30 03:49:31;;;;;;;5.03;2.42;;;12.40;99.90;;;;;;5085335;28;20109;-74
2023/03/30 03:51:56;;;;;;;5.90;2.47;;;12.40;99.90;;;;;;5083389;28;20143;-75
2023/03/30 03:54:22;;;;;;;6.85;2.38;;;12.40;99.90;;;;;;5084252;28;20111;-75
2023/03/30 03:56:48;;;;;;;6.78;2.80;;;12.50;99.90;;;;;;5083881;28;20033;-74
2023/03/30 03:59:13;;;;;;;10.90;2.88;;;12.50;99.90;;;;;;5076418;28;20031;-76
2023/03/30 04:01:39;;;;;;;7.18;2.65;;;12.50;99.90;;;;;;5083777;28;20071;-75
2023/03/30 04:04:05;;;;;;;6.70;2.40;;;12.50;99.90;;;;;;5072991;28;20055;-76
2023/03/30 04:06:31;;;;;;;6.43;2.05;;;12.50;99.90;;;;;;5070642;28;20132;-76
2023/03/30 04:08:56;;;;;;;5.78;2.30;;;12.40;99.90;;;;;;5085614;28;20376;-73
2023/03/30 04:11:22;;;;;;;7.55;2.60;;;12.40;99.90;;;;;;5078262;28;20070;-74
2023/03/30 04:13:48;;;;;;;7.78;2.50;;;12.40;99.90;;;;;;5088399;28;20044;-74
2023/03/30 04:16:14;;;;;;;4.82;2.10;;;12.40;99.90;;;;;;5089912;28;20098;-74
2023/03/30 04:18:40;;;;;;;7.07;2.50;;;12.50;99.90;;;;;;5088436;28;20036;-74
2023/03/30 04:21:06;;;;;;;6.07;1.95;;;12.50;99.90;;;;;;5079864;28;20134;-74
2023/03/30 04:23:33;;;;;;;7.38;2.20;;;12.50;99.90;;;;;;5067333;28;20115;-74
2023/03/30 04:26:03;;;;;;;4.47;1.90;;;12.50;99.90;;;;;;5076136;28;20047;-73
2023/03/30 04:28:31;;;;;;;8.43;1.85;;;12.50;99.90;;;;;;5080208;28;20074;-74
2023/03/30 04:31:09;;;;;;;3.72;1.88;;;12.40;99.90;;;;;;5083818;28;20105;-74
2023/03/30 04:33:37;;;;;;;7.13;2.00;;;12.40;99.90;;;;;;5075376;28;20045;-74
2023/03/30 04:36:03;;;;;;;7.90;1.92;;;12.40;99.90;;;;;;5065450;28;20090;-74
2023/03/30 04:38:29;;;;;;;6.82;1.98;;;12.40;99.90;;;;;;5077154;28;20052;-74
2023/03/30 04:40:55;;;;;;;8.50;2.17;;;12.40;99.90;;;;;;5077535;28;20043;-73
2023/03/30 04:43:22;;;;;;;6.55;2.15;;;12.50;99.90;;;;;;5071478;28;20553;-73
2023/03/30 04:45:53;;;;;;;8.02;2.15;;;12.50;99.90;;;;;;5054927;28;20040;-74
2023/03/30 04:48:20;;;;;;;7.10;1.67;;;12.50;99.90;;;;;;5078409;28;20127;-73
2023/03/30 04:50:48;;;;;;;7.80;2.13;;;12.50;99.90;;;;;;5078087;28;20048;-73
2023/03/30 04:53:15;;;;;;;8.25;2.17;;;12.60;99.90;;;;;;5078790;28;20052;-74
2023/03/30 04:55:41;;;;;;;5.05;1.60;;;12.60;99.90;;;;;;5093389;28;20051;-73
2023/03/30 04:58:10;;;;;;;5.97;1.70;;;12.60;99.90;;;;;;5068399;28;20424;-75
2023/03/30 05:00:36;;;;;;;8.65;2.25;;;12.60;99.90;;;;;;5087368;28;20459;-74
2023/03/30 05:03:03;;;;;;;5.22;1.52;;;12.60;99.90;;;;;;5057204;28;20108;-73
2023/03/30 05:05:29;;;;;;;5.25;1.50;;;12.60;99.90;;;;;;5082279;28;20047;-72
2023/03/30 05:07:55;;;;;;;7.57;1.70;;;12.60;99.90;;;;;;5073136;28;20044;-73
2023/03/30 05:10:20;;;;;;;6.88;2.28;;;12.50;99.90;;;;;;5080686;28;20125;-73
2023/03/30 05:12:47;;;;;;;6.47;2.05;;;12.50;99.90;;;;;;5078381;28;20330;-73
2023/03/30 05:15:13;;;;;;;4.85;1.77;;;12.50;99.90;;;;;;5079305;28;20627;-72
2023/03/30 05:17:39;;;;;;;5.10;1.88;;;12.50;99.90;;;;;;5080067;28;20040;-73
2023/03/30 05:20:09;;;;;;;6.50;2.17;;;12.50;99.90;;;;;;5064689;28;20043;-73
2023/03/30 05:22:35;;;;;;;7.85;2.45;;;12.60;99.90;;;;;;5080200;28;20044;-73
2023/03/30 05:25:02;;;;;;;6.53;1.88;;;12.60;99.90;;;;;;5056081;28;20212;-73
2023/03/30 05:27:27;;;;;;;6.90;2.40;;;12.60;99.90;;;;;;5074561;28;20054;-73
2023/03/30 05:29:54;;;;;;;7.85;2.15;;;12.60;99.90;;;;;;5074893;28;20041;-74
2023/03/30 05:32:20;;;;;;;7.60;2.38;;;12.60;99.90;;;;;;5086453;28;20367;-73
2023/03/30 05:34:46;;;;;;;;;;;12.70;99.90;;;;;;5084138;28;20043;-73
2023/03/30 05:37:12;;;;;;;6.43;2.10;;;12.70;99.90;;;;;;5078124;28;20006;-73
2023/03/30 05:39:39;;;;;;;8.82;2.33;;;12.70;99.90;;;;;;5071515;28;20395;-73
2023/03/30 05:42:04;;;;;;;7.60;2.10;;;12.70;99.90;;;;;;5064126;28;20059;-73
2023/03/30 05:44:30;;;;;;;9.73;2.63;;;12.70;99.90;;;;;;5059780;28;20063;-75
2023/03/30 05:46:56;;;;;;;8.48;2.42;;;12.70;99.90;;;;;;5081996;28;20127;-74
2023/03/30 05:49:22;;;;;;;7.55;2.40;;;12.60;99.90;;;;;;5081122;28;20414;-74
2023/03/30 05:51:47;;;;;;;6.47;2.40;;;12.70;99.90;;;;;;5084268;28;20039;-74
2023/03/30 05:54:13;;;;;;;9.93;2.65;;;12.60;99.90;;;;;;5070841;28;20047;-74
2023/03/30 05:56:41;;;;;;;9.55;2.60;;;12.70;99.90;;;;;;5079711;28;20036;-74
2023/03/30 05:59:09;;;;;;;8.45;2.33;;;12.70;99.90;;;;;;5070620;28;20080;-75
2023/03/30 06:01:35;;;;;;;7.82;2.70;;;12.70;99.90;;;;;;5078814;28;20101;-75
2023/03/30 06:04:01;;;;;;;;;;;12.70;99.90;;;;;;5080118;28;20507;-75
2023/03/30 06:06:27;;;;;;;7.88;2.25;;;12.70;99.90;;;;;;5076072;28;19923;-75
2023/03/30 06:08:52;;;;;;;6.95;2.30;;;12.70;99.90;;;;;;5070539;28;20048;-75
2023/03/30 06:11:18;;;;;;;4.85;1.95;;;12.70;99.90;;;;;;5069451;28;20072;-74
2023/03/30 06:13:44;;;;;;;4.47;2.10;;;12.70;99.90;;;;;;5052032;28;20037;-75
2023/03/30 06:16:10;;;;;;;9.75;2.70;;;12.70;99.90;;;;;;5070074;28;20153;-76
2023/03/30 06:18:36;;;;;;;8.00;2.35;;;12.70;99.90;;;;;;5054958;28;20399;-74
2023/03/30 06:21:05;;;;;;;5.03;2.08;;;12.70;99.90;;;;;;5080468;28;20475;-75
2023/03/30 06:23:32;;;;;;;6.97;1.95;;;12.70;99.90;;;;;;5090112;28;20044;-75
2023/03/30 06:25:58;;;;;;;7.85;2.20;;;12.70;99.90;;;;;;5090453;28;20056;-75
2023/03/30 06:28:24;;;;;;;6.57;2.58;;;12.70;99.90;;;;;;5089980;28;20048;-75
2023/03/30 06:30:50;;;;;;;7.85;2.83;;;12.70;99.90;;;;;;5087273;28;20044;-75
2023/03/30 06:33:16;;;;;;;5.13;2.35;;;12.70;99.90;;;;;;5089303;28;20044;-75
2023/03/30 06:35:50;;;;;;;8.70;2.50;;;12.70;99.90;;;;;;5089821;28;20059;-75
2023/03/30 06:38:17;;;;;;;6.05;2.78;;;12.70;99.90;;;;;;5090219;28;20093;-75
2023/03/30 06:40:43;;;;;;;10.60;2.92;;;12.70;99.90;;;;;;5091190;28;20421;-74
2023/03/30 06:43:16;;;;;;;6.95;2.97;;;12.70;99.90;;;;;;5089825;28;20058;-75
2023/03/30 06:45:42;;;;;;;7.38;2.53;;;12.70;99.90;;;;;;5089770;28;20036;-74
2023/03/30 06:48:08;;;;;;;6.15;2.47;;;12.70;99.90;;;;;;5089804;28;20059;-75
2023/03/30 06:50:35;;;;;;;7.63;2.88;;;12.80;99.90;;;;;;5089840;28;20040;-75
2023/03/30 06:53:01;;;;;;;7.05;2.50;;;12.80;99.90;;;;;;5089694;28;20396;-74
2023/03/30 06:55:27;;;;;;;6.03;2.30;;;12.80;99.90;;;;;;5091115;28;20044;-75
2023/03/30 06:57:52;;;;;;;7.75;2.38;;;12.80;99.90;;;;;;5089618;28;20076;-74
2023/03/30 07:00:18;;;;;;;8.40;2.30;;;12.90;99.90;;;;;;5089688;28;20148;-73
2023/03/30 07:02:44;;;;;;;;;;;12.90;99.90;;;;;;5090065;28;20052;-75
2023/03/30 07:05:11;;;;;;;7.70;2.40;;;12.90;99.90;;;;;;5090219;28;19923;-75
2023/03/30 07:07:37;;;;;;;8.35;2.33;;;12.90;99.90;;;;;;5093458;28;20075;-73
2023/03/30 07:10:10;;;;;;;8.45;2.55;;;12.90;99.90;;;;;;5093645;28;20507;-74
2023/03/30 07:12:37;;;;;;;11.40;2.80;;;12.90;99.90;;;;;;5093950;28;20080;-74
2023/03/30 07:15:05;;;;;;;8.00;2.20;;;13.00;99.90;;;;;;5093575;28;20036;-75
2023/03/30 07:17:32;;;;;;;12.80;2.50;;;13.00;99.90;;;;;;5093582;28;20063;-74
2023/03/30 07:19:57;;;;;;;;;;;13.00;99.90;;;;;;5077360;28;20373;-74
2023/03/30 07:22:23;;;;;;;11.43;2.45;;;13.00;99.90;;;;;;5093477;28;19927;-75
2023/03/30 07:24:49;;;;;;;9.48;2.30;;;13.00;99.90;;;;;;5093616;28;20062;-75
2023/03/30 07:27:15;;;;;;;10.95;2.50;;;13.00;99.90;;;;;;5093398;28;20035;-75
2023/03/30 07:29:41;;;;;;;12.80;2.50;;;13.00;99.90;;;;;;5093361;28;20044;-74
2023/03/30 07:32:06;;;;;;;6.75;2.25;;;13.00;99.90;;;;;;5093220;28;20063;-75
2023/03/30 07:34:32;;;;;;;12.18;2.33;;;13.00;99.90;;;;;;5093498;28;20040;-75
2023/03/30 07:36:58;;;;;;;13.55;2.80;;;12.90;99.90;;;;;;5093570;28;20391;-75
2023/03/30 07:39:24;;;;;;;;;;;12.80;99.90;;;;;;5093591;28;20055;-74
2023/03/30 07:41:50;;;;;;;10.30;2.45;;;12.80;99.90;;;;;;5093552;28;19930;-74
2023/03/30 07:44:15;;;;;;;11.55;2.88;;;12.70;99.90;;;;;;5076565;28;20437;-75
2023/03/30 07:46:41;;;;;;;11.70;2.35;;;12.70;99.90;;;;;;5076143;28;20048;-75
2023/03/30 07:49:07;;;;;;;12.70;3.47;;;12.80;99.90;;;;;;5076425;28;20104;-75
2023/03/30 07:51:33;;;;;;;13.50;2.80;;;12.70;99.90;;;;;;5092848;28;20043;-75
2023/03/30 07:53:59;;;;;;;13.13;3.38;;;12.60;99.90;;;;;;5094330;28;20063;-74
2023/03/30 07:56:26;;;;;;;15.23;2.88;;;12.60;99.90;;;;;;5092246;28;20044;-75
2023/03/30 07:58:52;;;;;;;11.25;2.78;;;12.50;99.90;;;;;;5092960;28;20116;-75
2023/03/30 08:01:18;;;;;;;15.02;2.95;;;12.40;99.90;;;;;;5092378;28;20360;-75
2023/03/30 08:03:44;;;;;;;16.73;3.25;;;12.40;99.90;;;;;;5092633;28;20083;-75
2023/03/30 08:06:10;;;;;;;12.50;2.72;;;12.30;99.90;;;;;;5092561;28;20054;-75
2023/03/30 08:08:39;;;;;;;14.93;3.22;;;12.30;99.90;;;;;;5075865;28;20051;-74
2023/03/30 08:11:07;;;;;;;16.98;3.05;;;12.30;99.90;;;;;;5092642;28;20052;-75
2023/03/30 08:13:33;;;;;;;12.95;3.10;;;12.20;99.90;;;;;;5092520;28;20097;-75
2023/03/30 08:15:59;;;;;;;13.95;3.30;;;12.20;99.90;;;;;;5092569;28;20040;-75
2023/03/30 08:18:25;;;;;;;16.00;3.38;;;12.20;99.90;;;;;;5091674;28;20130;-74
2023/03/30 08:20:52;;;;;;;16.27;3.22;;;12.20;99.90;;;;;;5092091;28;20087;-74
2023/03/30 08:23:19;;;;;;;17.17;3.40;;;12.20;99.90;;;;;;5075583;28;20048;-75
2023/03/30 08:26:06;;;;;;;16.23;3.00;;;12.20;99.90;;;;;;5097829;28;20040;-75
2023/03/30 08:28:32;;;;;;;14.05;3.47;;;12.20;99.90;;;;;;5103460;28;20043;-75
2023/03/30 08:31:02;;;;;;;;;;;12.20;99.90;;;;;;5078389;28;20105;-74
2023/03/30 08:33:28;;;;;;;16.17;3.38;;;12.10;99.90;;;;;;5087497;28;20251;-74
2023/03/30 08:35:53;;;;;;;17.10;3.65;;;12.00;99.90;;;;;;5085559;28;20051;-74
2023/03/30 08:38:19;;;;;;;16.27;3.10;;;11.80;99.90;;;;;;5100169;28;20040;-75
2023/03/30 08:40:49;;;;;;;21.55;4.15;;;11.80;99.90;;;;;;5092872;28;20043;-74
2023/03/30 08:43:17;;;;;;;15.45;3.28;;;11.80;99.90;;;;;;5092922;28;20387;-73
2023/03/30 08:45:43;;;;;;;18.33;3.15;;;11.80;99.90;;;;;;5091979;28;20393;-73
2023/03/30 08:48:22;;;;;;;22.50;3.63;;;11.80;99.90;;;;;;5091831;28;20043;-74
2023/03/30 08:50:59;;;;;;;16.88;3.63;;;11.70;99.90;;;;;;5091727;28;20055;-74
2023/03/30 08:53:28;;;;;;;18.17;3.53;;;11.80;99.90;;;;;;5091496;28;20036;-74
2023/03/30 08:56:00;;;;;;;20.60;4.18;;;11.80;99.90;;;;;;5091518;28;20135;-74
2023/03/30 08:58:59;;;;;;;20.20;3.80;;;11.80;99.90;;;;;;5091713;28;20044;-74
2023/03/30 09:01:29;;;;;;;19.92;4.28;;;11.90;99.90;;;;;;5091237;28;20060;-74
2023/03/30 09:04:33;;;;;;;18.73;3.67;;;12.00;99.90;;;;;;5091232;28;20052;-74
2023/03/30 09:07:07;;;;;;;16.23;3.40;;;12.10;99.90;;;;;;5091317;28;20131;-74
2023/03/30 09:09:42;;;;;;;18.80;3.80;;;12.20;99.90;;;;;;5091554;28;20031;-74
2023/03/30 09:12:27;;;;;;;23.98;4.15;;;12.30;99.90;;;;;;5091002;28;20082;-74
2023/03/30 09:14:59;;;;;;;23.05;4.28;;;12.50;99.90;;;;;;5091071;28;20043;-73
2023/03/30 09:18:06;;;;;;;16.77;3.85;;;12.70;99.90;;;;;;5074521;28;20081;-73
2023/03/30 09:20:36;;;;;;;16.35;3.30;;;12.70;99.90;;;;;;5074184;28;20048;-74
2023/03/30 09:23:03;;;;;;;16.30;3.83;;;12.80;99.90;;;;;;5091244;28;20052;-73
2023/03/30 09:25:41;;;;;;;21.67;4.07;;;12.80;99.90;;;;;;5091250;28;20479;-74
2023/03/30 09:28:19;;;;;;;21.25;3.90;;;12.80;99.90;;;;;;5090356;28;20055;-73
2023/03/30 09:31:01;;;;;;;25.58;4.75;;;12.90;99.90;;;;;;5092309;28;20044;-73
2023/03/30 09:33:55;;;;;;;15.68;3.50;;;12.90;99.90;;;;;;5090862;28;20483;-74
2023/03/30 09:36:37;;;;;;;15.27;3.40;;;12.90;99.90;;;;;;5091014;28;20093;-74
2023/03/30 09:39:24;;;;;;;21.27;4.43;;;13.10;99.90;;;;;;5091093;28;20084;-74
2023/03/30 09:41:55;;;;;;;;;;;13.20;99.90;;;;;;5089542;28;20056;-74
2023/03/30 09:44:41;;;;;;;16.67;3.50;;;13.30;99.90;;;;;;5089333;28;20349;-73
2023/03/30 09:47:15;;;;;;;14.15;3.05;;;13.40;99.90;;;;;;5088672;28;20063;-73
2023/03/30 09:49:41;;;;;;;15.18;3.03;;;13.30;99.90;;;;;;5090231;28;20388;-74
2023/03/30 09:52:17;;;;;;;14.70;3.15;;;13.20;99.90;;;;;;5089858;28;20052;-74
2023/03/30 09:54:43;;;;;;;14.13;2.93;;;13.10;99.90;;;;;;5090614;28;20036;-73
2023/03/30 09:57:32;;;;;;;14.02;3.08;;;13.10;99.90;;;;;;5072969;28;20437;-74
2023/03/30 10:00:00;;;;;;;15.13;2.83;;;13.00;99.90;;;;;;5087222;28;20059;-74
2023/03/30 10:02:29;;;;;;;12.95;2.60;;;12.90;99.90;;;;;;5089816;28;20128;-74
2023/03/30 10:04:59;;;;;;;10.10;2.50;;;12.90;99.90;;;;;;5090702;28;20047;-74
2023/03/30 10:07:26;;;;;;;10.13;2.70;;;12.90;99.90;;;;;;5073249;28;20058;-74
2023/03/30 10:09:53;;;;;;;12.93;2.83;;;12.80;99.90;;;;;;5090349;28;20036;-73
2023/03/30 10:12:20;;;;;;;17.67;3.80;;;12.80;99.90;;;;;;5090132;28;20044;-73
2023/03/30 10:15:01;;;;;;;12.32;2.65;;;12.90;99.90;;;;;;5073801;28;20143;-75
2023/03/30 10:17:28;;;;;;;16.42;3.28;;;12.90;99.90;;;;;;5091574;28;20112;-75
2023/03/30 10:20:14;;;;;;;13.70;2.60;;;13.00;99.90;;;;;;5090341;28;20047;-73
2023/03/30 10:22:53;;;;;;;13.35;2.70;;;13.00;99.90;;;;;;5069922;28;20041;-72
2023/03/30 10:25:22;;;;;;;12.43;2.40;;;13.00;99.90;;;;;;5069622;28;20036;-74
2023/03/30 10:27:54;;;;;;;12.90;2.90;;;13.00;99.90;;;;;;5069934;28;20044;-74
2023/03/30 10:30:23;;;;;;;8.48;2.30;;;13.00;99.90;;;;;;5069939;28;20475;-74
2023/03/30 10:32:50;;;;;;;9.57;2.30;;;13.00;99.90;;;;;;5069721;28;20391;-74
2023/03/30 10:35:31;;;;;;;14.18;2.83;;;13.00;99.90;;;;;;5069880;28;20553;-73
2023/03/30 10:37:59;;;;;;;14.80;3.20;;;12.90;99.10;;;;;;5069745;28;20050;-74
2023/03/30 10:40:42;;;;;;;16.88;3.08;;;12.90;99.90;;;;;;5069656;28;20451;-75
2023/03/30 10:43:20;;;;;;;15.05;3.40;;;13.00;99.90;;;;;;5069627;28;20044;-74
2023/03/30 10:45:49;;;;;;;12.00;3.20;;;13.10;99.90;;;;;;5069704;28;20057;-73
2023/03/30 10:48:27;;;;;;;13.40;3.03;;;13.20;99.90;;;;;;5052654;28;20052;-74
2023/03/30 10:51:24;;;;;;;12.80;3.08;;;13.20;99.90;;;;;;5069717;28;20198;-75
2023/03/30 10:54:10;;;;;;;14.00;3.30;;;13.20;99.90;;;;;;5069721;28;20049;-74
2023/03/30 10:56:45;;;;;;;21.25;3.63;;;13.20;99.90;;;;;;5070785;28;20045;-74
2023/03/30 10:59:26;;;;;;;15.65;3.33;;;13.10;99.90;;;;;;5069880;28;20076;-74
2023/03/30 11:02:13;;;;;;;15.05;3.28;;;13.10;99.90;;;;;;5069115;28;20048;-74
2023/03/30 11:04:46;;;;;;;20.42;3.60;;;13.10;99.90;;;;;;5052701;28;20056;-75
2023/03/30 11:07:34;;;;;;;14.68;3.20;;;13.10;99.90;;;;;;5052589;28;20050;-75
2023/03/30 11:10:28;;;;;;;16.42;3.25;;;13.20;99.90;;;;;;5069329;28;20052;-75
2023/03/30 11:12:59;;;;;;;16.90;3.80;;;13.20;99.90;;;;;;5069388;28;20472;-75
2023/03/30 11:15:30;;;;;;;15.38;3.65;;;13.30;99.90;;;;;;5070709;28;20147;-75
2023/03/30 11:18:01;;;;;;;20.65;4.25;;;13.30;99.90;;;;;;5069445;28;20048;-74
2023/03/30 11:20:54;;;;;;;17.88;3.53;;;13.40;99.90;;;;;;5071399;28;20072;-74
2023/03/30 11:23:43;;;;;;;17.40;3.72;;;13.50;99.90;;;;;;5089553;28;20056;-75
2023/03/30 11:26:12;;;;;;;18.77;3.50;;;13.70;99.90;;;;;;5091284;28;20047;-75
2023/03/30 11:28:44;;;;;;;17.02;3.30;;;13.70;99.90;;;;;;5089631;28;20044;-74
2023/03/30 11:31:45;;;;;;;16.27;3.00;;;13.70;99.90;;;;;;5089321;28;20032;-74
2023/03/30 11:34:42;;;;;;;15.18;3.05;;;13.70;99.90;;;;;;5089454;28;20399;-74
2023/03/30 11:37:28;;;;;;;13.13;2.97;;;13.80;99.90;;;;;;5072717;28;20372;-74
2023/03/30 11:40:15;;;;;;;17.65;3.80;;;13.90;99.90;;;;;;5089157;28;20380;-74
2023/03/30 11:42:42;;;;;;;13.93;3.47;;;14.00;99.90;;;;;;5089172;28;20060;-74
2023/03/30 11:45:31;;;;;;;;;;;14.00;99.90;;;;;;5091290;28;20044;-74
2023/03/30 11:48:00;;;;;;;15.95;3.25;;;14.20;99.90;;;;;;5053254;28;19935;-74
2023/03/30 11:50:30;;;;;;;15.05;3.13;;;14.10;92.70;;;;;;5089082;28;20564;-73
2023/03/30 11:53:24;;;;;;;15.38;3.70;;;13.90;95.20;;;;;;5091176;28;20048;-72
2023/03/30 11:56:05;;;;;;;13.73;3.15;;;13.90;99.90;;;;;;5093540;28;20341;-74
2023/03/30 11:58:35;;;;;;;14.05;3.22;;;13.90;99.90;;;;;;5092736;28;20139;-74
2023/03/30 12:01:31;;;;;;;16.95;3.58;;;14.00;96.70;;;;;;5092693;28;20166;-74
2023/03/30 12:04:14;;;;;;;14.40;3.33;;;13.90;94.30;;;;;;5092657;28;20097;-73
2023/03/30 12:06:51;;;;;;;22.60;4.15;;;13.90;99.90;;;;;;5094274;28;20058;-73
2023/03/30 12:09:47;;;;;;;17.90;3.65;;;14.00;99.90;;;;;;5093172;28;20044;-74
2023/03/30 12:12:16;;;;;;;17.50;3.42;;;14.00;99.90;;;;;;5092576;28;20499;-74
2023/03/30 12:14:45;;;;;;;14.88;3.28;;;14.10;99.90;;;;;;5092853;28;20032;-74
2023/03/30 12:17:25;;;;;;;14.23;3.60;;;14.20;99.90;;;;;;5075692;28;20526;-73
2023/03/30 12:20:14;;;;;;;14.93;3.35;;;14.30;99.90;;;;;;5092375;28;20056;-73
2023/03/30 12:22:47;;;;;;;15.88;3.15;;;14.30;99.90;;;;;;5092211;28;20522;-74
2023/03/30 12:25:29;;;;;;;15.82;3.67;;;14.30;78.30;;;;;;5092271;28;20585;-75
2023/03/30 12:27:59;;;;;;;13.60;3.05;;;14.40;52.20;;;;;;5092156;28;20089;-74
2023/03/30 12:30:40;;;;;;;15.75;3.60;;;14.40;27.50;;;;;;5092069;28;20044;-74
2023/03/30 12:33:27;;;;;;;14.25;3.20;;;14.40;53.30;;;;;;5092287;28;20131;-73
2023/03/30 12:35:58;;;;;;;16.65;3.83;;;14.30;49.30;;;;;;5088168;28;20059;-74
2023/03/30 12:38:37;;;;;;;20.17;3.33;;;14.40;45.60;;;;;;5092153;28;20046;-74
2023/03/30 12:41:14;;;;;;;10.45;2.55;;;14.30;36.60;;;;;;5091834;28;20136;-74
2023/03/30 12:43:55;;;;;;;12.82;3.13;;;14.20;26.70;;;;;;5075506;28;20558;-74
2023/03/30 12:46:30;;;;;;;13.43;3.03;;;14.40;38.10;;;;;;5091758;28;20043;-74
2023/03/30 12:49:03;;;;;;;12.55;3.20;;;14.50;26.30;;;;;;5091859;28;20491;-73
2023/03/30 12:51:54;;;;;;;12.60;3.05;;;14.60;30.40;;;;;;5091753;28;20483;-74
2023/03/30 12:54:48;;;;;;;16.35;3.33;;;14.90;23.90;;;;;;5091327;28;20118;-74
2023/03/30 12:57:37;;;;;;;14.82;3.20;;;14.80;1.00;;;;;;5092124;28;20044;-73
2023/03/30 13:00:09;;;;;;;17.27;3.38;;;14.70;13.40;;;;;;5092002;28;20047;-74
2023/03/30 13:02:43;;;;;;;17.38;4.13;;;14.70;28.00;;;;;;5074257;28;20080;-74
2023/03/30 13:05:39;;;;;;;17.33;3.45;;;14.60;13.90;;;;;;5091677;28;20043;-74
2023/03/30 13:08:15;;;;;;;12.55;2.78;;;14.40;19.00;;;;;;5074112;28;20066;-73
2023/03/30 13:10:42;;;;;;;16.58;3.35;;;14.20;13.20;;;;;;5092848;28;20052;-74